createdAt,value
2023-05-02T00:00:49.707Z,1011.86
2023-05-02T00:01:49.719Z,1011.85
2023-05-02T00:02:49.763Z,1011.83
2023-05-02T00:03:49.716Z,1011.88
2023-05-02T00:04:49.642Z,1011.91
2023-05-02T00:05:49.635Z,1011.83
2023-05-02T00:06:49.746Z,1011.86
2023-05-02T00:07:49.625Z,1011.88
2023-05-02T00:08:49.603Z,1011.89
2023-05-02T00:09:49.597Z,1011.79
2023-05-02T00:10:49.594Z,1011.84
2023-05-02T00:11:49.574Z,1011.83
2023-05-02T00:12:49.555Z,1011.83
2023-05-02T00:13:49.555Z,1011.79
2023-05-02T00:14:49.564Z,1011.87
2023-05-02T00:15:49.515Z,1011.89
2023-05-02T00:16:49.550Z,1011.86
2023-05-02T00:17:49.550Z,1011.97
2023-05-02T00:18:49.528Z,1011.94
2023-05-02T00:19:49.497Z,1011.99
2023-05-02T00:20:49.474Z,1012.00
2023-05-02T00:21:49.475Z,1012.01
2023-05-02T00:22:49.439Z,1012.05
2023-05-02T00:23:49.456Z,1012.05
2023-05-02T00:24:49.431Z,1012.07
2023-05-02T00:25:49.404Z,1012.07
2023-05-02T00:26:49.408Z,1012.09
2023-05-02T00:27:49.400Z,1012.08
2023-05-02T00:28:49.379Z,1012.09
2023-05-02T00:29:49.384Z,1012.08
2023-05-02T00:30:49.530Z,1012.07
2023-05-02T00:31:49.335Z,1012.03
2023-05-02T00:32:49.404Z,1012.07
2023-05-02T00:33:49.325Z,1012.00
2023-05-02T00:34:49.327Z,1012.05
2023-05-02T00:35:49.311Z,1012.09
2023-05-02T00:36:49.290Z,1012.08
2023-05-02T00:37:49.272Z,1012.06
2023-05-02T00:38:49.284Z,1012.09
2023-05-02T00:39:49.263Z,1012.02
2023-05-02T00:40:49.267Z,1012.00
2023-05-02T00:41:49.226Z,1012.02
2023-05-02T00:42:49.220Z,1012.06
2023-05-02T00:43:49.204Z,1012.08
2023-05-02T00:44:49.209Z,1012.06
2023-05-02T00:45:49.194Z,1012.06
2023-05-02T00:46:49.293Z,1012.02
2023-05-02T00:47:49.283Z,1012.16
2023-05-02T00:48:49.173Z,1012.15
2023-05-02T00:49:49.146Z,1012.12
2023-05-02T00:50:49.139Z,1012.14
2023-05-02T00:51:49.126Z,1012.13
2023-05-02T00:52:49.108Z,1012.13
2023-05-02T00:53:49.093Z,1012.10
2023-05-02T00:54:49.105Z,1012.04
2023-05-02T00:55:49.071Z,1012.09
2023-05-02T00:56:49.061Z,1012.06
2023-05-02T00:57:49.066Z,1012.11
2023-05-02T00:58:49.052Z,1012.15
2023-05-02T00:59:49.027Z,1012.10
2023-05-02T01:00:49.023Z,1012.08
2023-05-02T01:01:49.037Z,1012.07
2023-05-02T01:02:49.245Z,1012.09
2023-05-02T01:03:49.101Z,1012.10
2023-05-02T01:04:48.973Z,1012.04
2023-05-02T01:05:48.956Z,1012.07
2023-05-02T01:06:48.993Z,1012.05
2023-05-02T01:07:48.952Z,1012.04
2023-05-02T01:08:48.940Z,1012.07
2023-05-02T01:09:48.921Z,1012.04
2023-05-02T01:10:48.942Z,1012.04
2023-05-02T01:11:48.912Z,1012.01
2023-05-02T01:12:48.892Z,1012.10
2023-05-02T01:13:48.881Z,1011.98
2023-05-02T01:14:48.862Z,1012.00
2023-05-02T01:15:48.970Z,1012.05
2023-05-02T01:16:48.836Z,1012.00
2023-05-02T01:17:48.844Z,1012.05
2023-05-02T01:18:48.862Z,1012.07
2023-05-02T01:19:48.802Z,1012.07
2023-05-02T01:20:48.791Z,1012.12
2023-05-02T01:21:48.796Z,1012.08
2023-05-02T01:22:48.776Z,1012.11
2023-05-02T01:23:48.773Z,1012.08
2023-05-02T01:24:48.777Z,1012.08
2023-05-02T01:25:48.754Z,1012.09
2023-05-02T01:26:48.733Z,1012.09
2023-05-02T01:27:48.712Z,1012.10
2023-05-02T01:28:48.704Z,1012.15
2023-05-02T01:29:48.688Z,1012.09
2023-05-02T01:30:48.701Z,1012.14
2023-05-02T01:31:48.783Z,1012.13
2023-05-02T01:32:48.733Z,1012.16
2023-05-02T01:33:48.646Z,1012.24
2023-05-02T01:34:48.662Z,1012.16
2023-05-02T01:35:48.622Z,1012.10
2023-05-02T01:36:48.634Z,1012.18
2023-05-02T01:37:48.622Z,1012.28
2023-05-02T01:38:48.605Z,1012.24
2023-05-02T01:39:48.592Z,1012.22
2023-05-02T01:40:48.573Z,1012.23
2023-05-02T01:41:48.559Z,1012.16
2023-05-02T01:42:48.587Z,1012.15
2023-05-02T01:43:48.552Z,1012.18
2023-05-02T01:44:48.548Z,1012.20
2023-05-02T01:45:48.515Z,1012.13
2023-05-02T01:46:48.532Z,1012.22
2023-05-02T01:47:48.515Z,1012.23
2023-05-02T01:48:48.492Z,1012.20
2023-05-02T01:49:48.487Z,1012.18
2023-05-02T01:50:48.501Z,1012.23
2023-05-02T01:51:48.454Z,1012.27
2023-05-02T01:52:48.440Z,1012.25
2023-05-02T01:53:48.452Z,1012.20
2023-05-02T01:54:48.441Z,1012.26
2023-05-02T01:55:48.405Z,1012.24
2023-05-02T01:56:48.413Z,1012.18
2023-05-02T01:57:48.385Z,1012.25
2023-05-02T01:58:48.382Z,1012.29
2023-05-02T01:59:48.399Z,1012.28
2023-05-02T02:00:48.377Z,1012.31
2023-05-02T02:01:48.341Z,1012.32
2023-05-02T02:02:48.352Z,1012.29
2023-05-02T02:03:48.381Z,1012.31
2023-05-02T02:04:48.545Z,1012.40
2023-05-02T02:05:48.297Z,1012.36
2023-05-02T02:06:48.549Z,1012.42
2023-05-02T02:07:48.273Z,1012.32
2023-05-02T02:08:48.266Z,1012.40
2023-05-02T02:09:48.279Z,1012.40
2023-05-02T02:10:48.268Z,1012.45
2023-05-02T02:11:48.249Z,1012.44
2023-05-02T02:12:48.257Z,1012.49
2023-05-02T02:13:48.207Z,1012.43
2023-05-02T02:14:48.246Z,1012.50
2023-05-02T02:15:48.265Z,1012.47
2023-05-02T02:16:48.224Z,1012.55
2023-05-02T02:17:48.233Z,1012.48
2023-05-02T02:18:48.176Z,1012.50
2023-05-02T02:19:48.169Z,1012.51
2023-05-02T02:20:48.150Z,1012.51
2023-05-02T02:21:48.164Z,1012.54
2023-05-02T02:22:48.172Z,1012.51
2023-05-02T02:23:48.107Z,1012.46
2023-05-02T02:24:48.089Z,1012.50
2023-05-02T02:25:48.072Z,1012.47
2023-05-02T02:26:48.077Z,1012.51
2023-05-02T02:27:48.083Z,1012.49
2023-05-02T02:28:48.042Z,1012.55
2023-05-02T02:29:48.035Z,1012.53
2023-05-02T02:30:48.069Z,1012.52
2023-05-02T02:31:48.010Z,1012.53
2023-05-02T02:32:48.075Z,1012.59
2023-05-02T02:33:48.010Z,1012.62
2023-05-02T02:34:47.977Z,1012.55
2023-05-02T02:35:47.968Z,1012.62
2023-05-02T02:36:47.968Z,1012.58
2023-05-02T02:37:47.944Z,1012.56
2023-05-02T02:38:47.949Z,1012.62
2023-05-02T02:39:47.917Z,1012.60
2023-05-02T02:40:47.910Z,1012.64
2023-05-02T02:41:47.890Z,1012.61
2023-05-02T02:42:47.963Z,1012.66
2023-05-02T02:43:47.870Z,1012.70
2023-05-02T02:44:47.864Z,1012.70
2023-05-02T02:45:47.917Z,1012.73
2023-05-02T02:46:48.008Z,1012.71
2023-05-02T02:47:47.859Z,1012.67
2023-05-02T02:48:47.828Z,1012.74
2023-05-02T02:49:47.805Z,1012.73
2023-05-02T02:50:47.797Z,1012.74
2023-05-02T02:51:47.795Z,1012.73
2023-05-02T02:52:47.779Z,1012.68
2023-05-02T02:53:47.781Z,1012.74
2023-05-02T02:54:47.763Z,1012.73
2023-05-02T02:55:47.759Z,1012.71
2023-05-02T02:56:47.732Z,1012.71
2023-05-02T02:57:47.719Z,1012.71
2023-05-02T02:58:47.728Z,1012.68
2023-05-02T02:59:47.690Z,1012.72
2023-05-02T03:00:47.672Z,1012.74
2023-05-02T03:01:47.680Z,1012.83
2023-05-02T03:02:47.708Z,1012.76
2023-05-02T03:03:47.718Z,1012.81
2023-05-02T03:04:47.631Z,1012.81
2023-05-02T03:05:47.653Z,1012.83
2023-05-02T03:06:47.746Z,1012.85
2023-05-02T03:07:47.605Z,1012.84
2023-05-02T03:08:47.585Z,1012.85
2023-05-02T03:09:47.634Z,1012.86
2023-05-02T03:10:47.591Z,1012.96
2023-05-02T03:11:47.566Z,1012.96
2023-05-02T03:12:47.544Z,1012.97
2023-05-02T03:13:47.537Z,1013.01
2023-05-02T03:14:47.534Z,1012.97
2023-05-02T03:15:47.550Z,1013.00
2023-05-02T03:16:47.498Z,1013.00
2023-05-02T03:17:47.579Z,1013.03
2023-05-02T03:18:47.479Z,1012.99
2023-05-02T03:19:47.506Z,1013.06
2023-05-02T03:20:47.463Z,1013.12
2023-05-02T03:21:47.475Z,1013.11
2023-05-02T03:22:47.444Z,1013.10
2023-05-02T03:23:47.418Z,1013.18
2023-05-02T03:24:47.424Z,1013.14
2023-05-02T03:25:47.412Z,1013.17
2023-05-02T03:26:47.410Z,1013.22
2023-05-02T03:27:47.389Z,1013.22
2023-05-02T03:28:47.364Z,1013.16
2023-05-02T03:29:47.358Z,1013.23
2023-05-02T03:30:47.365Z,1013.18
2023-05-02T03:31:47.403Z,1013.25
2023-05-02T03:32:47.345Z,1013.28
2023-05-02T03:33:47.319Z,1013.32
2023-05-02T03:34:47.300Z,1013.32
2023-05-02T03:35:47.326Z,1013.37
2023-05-02T03:36:47.276Z,1013.34
2023-05-02T03:37:47.276Z,1013.38
2023-05-02T03:38:47.258Z,1013.43
2023-05-02T03:39:47.251Z,1013.45
2023-05-02T03:40:47.237Z,1013.44
2023-05-02T03:41:47.237Z,1013.46
2023-05-02T03:42:47.233Z,1013.49
2023-05-02T03:43:47.196Z,1013.53
2023-05-02T03:44:47.186Z,1013.52
2023-05-02T03:45:48.796Z,1013.54
2023-05-02T03:46:47.184Z,1013.60
2023-05-02T03:47:47.228Z,1013.59
2023-05-02T03:48:47.146Z,1013.61
2023-05-02T03:49:47.127Z,1013.59
2023-05-02T03:50:47.133Z,1013.62
2023-05-02T03:51:47.136Z,1013.63
2023-05-02T03:52:47.106Z,1013.60
2023-05-02T03:53:47.087Z,1013.55
2023-05-02T03:54:47.078Z,1013.63
2023-05-02T03:55:47.088Z,1013.64
2023-05-02T03:56:47.090Z,1013.65
2023-05-02T03:57:47.051Z,1013.69
2023-05-02T03:58:47.071Z,1013.74
2023-05-02T03:59:47.018Z,1013.70
2023-05-02T04:00:47.028Z,1013.73
2023-05-02T04:01:47.050Z,1013.72
2023-05-02T04:02:47.104Z,1013.76
2023-05-02T04:03:47.097Z,1013.74
2023-05-02T04:04:47.572Z,1013.80
2023-05-02T04:05:46.958Z,1013.78
2023-05-02T04:06:47.196Z,1013.77
2023-05-02T04:07:46.930Z,1013.76
2023-05-02T04:08:46.938Z,1013.78
2023-05-02T04:09:46.926Z,1013.82
2023-05-02T04:10:46.896Z,1013.77
2023-05-02T04:11:46.894Z,1013.78
2023-05-02T04:12:46.875Z,1013.79
2023-05-02T04:13:46.861Z,1013.85
2023-05-02T04:14:46.875Z,1013.87
2023-05-02T04:15:46.852Z,1013.85
2023-05-02T04:16:46.860Z,1013.84
2023-05-02T04:17:46.870Z,1013.83
2023-05-02T04:18:46.811Z,1013.86
2023-05-02T04:19:46.811Z,1013.90
2023-05-02T04:20:46.796Z,1013.89
2023-05-02T04:21:46.791Z,1013.89
2023-05-02T04:22:46.766Z,1013.96
2023-05-02T04:23:46.750Z,1013.94
2023-05-02T04:24:46.740Z,1013.97
2023-05-02T04:25:46.736Z,1013.99
2023-05-02T04:26:46.720Z,1014.09
2023-05-02T04:27:46.718Z,1014.08
2023-05-02T04:28:46.699Z,1014.07
2023-05-02T04:29:46.682Z,1014.01
2023-05-02T04:30:46.742Z,1014.01
2023-05-02T04:31:46.680Z,1014.06
2023-05-02T04:32:46.679Z,1014.04
2023-05-02T04:33:46.655Z,1014.03
2023-05-02T04:34:46.640Z,1014.07
2023-05-02T04:35:46.615Z,1014.11
2023-05-02T04:36:46.612Z,1014.12
2023-05-02T04:37:46.620Z,1014.14
2023-05-02T04:38:46.591Z,1014.14
2023-05-02T04:39:46.570Z,1014.14
2023-05-02T04:40:46.568Z,1014.21
2023-05-02T04:41:46.555Z,1014.22
2023-05-02T04:42:46.543Z,1014.23
2023-05-02T04:43:46.549Z,1014.27
2023-05-02T04:44:46.516Z,1014.18
2023-05-02T04:45:46.500Z,1014.26
2023-05-02T04:46:46.647Z,1014.34
2023-05-02T04:47:46.538Z,1014.33
2023-05-02T04:48:46.513Z,1014.36
2023-05-02T04:49:46.471Z,1014.41
2023-05-02T04:50:46.444Z,1014.38
2023-05-02T04:51:46.432Z,1014.44
2023-05-02T04:52:46.445Z,1014.39
2023-05-02T04:53:46.434Z,1014.47
2023-05-02T04:54:46.401Z,1014.46
2023-05-02T04:55:46.397Z,1014.44
2023-05-02T04:56:46.394Z,1014.46
2023-05-02T04:57:46.365Z,1014.49
2023-05-02T04:58:46.387Z,1014.51
2023-05-02T04:59:46.348Z,1014.48
2023-05-02T05:00:46.343Z,1014.51
2023-05-02T05:01:46.428Z,1014.47
2023-05-02T05:02:46.423Z,1014.63
2023-05-02T05:03:46.360Z,1014.56
2023-05-02T05:04:46.292Z,1014.62
2023-05-02T05:05:46.361Z,1014.62
2023-05-02T05:06:46.321Z,1014.55
2023-05-02T05:07:46.269Z,1014.67
2023-05-02T05:08:46.254Z,1014.61
2023-05-02T05:09:46.232Z,1014.63
2023-05-02T05:10:46.235Z,1014.69
2023-05-02T05:11:46.227Z,1014.66
2023-05-02T05:12:46.215Z,1014.68
2023-05-02T05:13:46.215Z,1014.71
2023-05-02T05:14:46.181Z,1014.72
2023-05-02T05:15:46.207Z,1014.75
2023-05-02T05:16:46.197Z,1014.78
2023-05-02T05:17:46.175Z,1014.85
2023-05-02T05:18:46.164Z,1014.82
2023-05-02T05:19:46.160Z,1014.92
2023-05-02T05:20:46.130Z,1014.90
2023-05-02T05:21:46.115Z,1014.88
2023-05-02T05:22:46.090Z,1014.90
2023-05-02T05:23:46.251Z,1015.03
2023-05-02T05:24:46.067Z,1015.05
2023-05-02T05:25:46.090Z,1015.08
2023-05-02T05:26:46.046Z,1015.16
2023-05-02T05:27:46.031Z,1015.10
2023-05-02T05:28:46.038Z,1015.18
2023-05-02T05:29:46.027Z,1015.20
2023-05-02T05:30:46.000Z,1015.19
2023-05-02T05:31:46.053Z,1015.24
2023-05-02T05:32:46.011Z,1015.23
2023-05-02T05:33:45.999Z,1015.23
2023-05-02T05:34:45.996Z,1015.34
2023-05-02T05:35:45.953Z,1015.37
2023-05-02T05:36:45.934Z,1015.35
2023-05-02T05:37:45.948Z,1015.35
2023-05-02T05:38:45.910Z,1015.42
2023-05-02T05:39:45.899Z,1015.50
2023-05-02T05:40:45.890Z,1015.47
2023-05-02T05:41:45.901Z,1015.49
2023-05-02T05:42:45.872Z,1015.52
2023-05-02T05:43:45.856Z,1015.47
2023-05-02T05:44:45.846Z,1015.51
2023-05-02T05:45:45.855Z,1015.59
2023-05-02T05:46:45.871Z,1015.53
2023-05-02T05:47:45.815Z,1015.68
2023-05-02T05:48:45.814Z,1015.66
2023-05-02T05:49:45.803Z,1015.67
2023-05-02T05:50:45.813Z,1015.67
2023-05-02T05:51:45.769Z,1015.66
2023-05-02T05:52:45.782Z,1015.66
2023-05-02T05:53:45.739Z,1015.73
2023-05-02T05:54:45.736Z,1015.75
2023-05-02T05:55:45.719Z,1015.71
2023-05-02T05:56:45.716Z,1015.72
2023-05-02T05:57:45.711Z,1015.82
2023-05-02T05:58:45.706Z,1015.77
2023-05-02T05:59:45.688Z,1015.83
2023-05-02T06:00:45.688Z,1015.89
2023-05-02T06:01:45.666Z,1015.87
2023-05-02T06:02:45.805Z,1015.88
2023-05-02T06:03:45.726Z,1015.86
2023-05-02T06:04:45.683Z,1015.99
2023-05-02T06:05:45.607Z,1015.97
2023-05-02T06:06:45.752Z,1015.90
2023-05-02T06:07:45.603Z,1015.94
2023-05-02T06:08:45.588Z,1015.91
2023-05-02T06:09:45.575Z,1016.07
2023-05-02T06:10:45.588Z,1016.04
2023-05-02T06:11:45.546Z,1016.09
2023-05-02T06:12:47.151Z,1016.04
2023-05-02T06:13:45.566Z,1016.10
2023-05-02T06:14:45.532Z,1016.08
2023-05-02T06:15:45.544Z,1016.13
2023-05-02T06:16:45.499Z,1016.12
2023-05-02T06:17:45.511Z,1016.09
2023-05-02T06:18:45.487Z,1016.19
2023-05-02T06:19:45.467Z,1016.17
2023-05-02T06:20:45.447Z,1016.20
2023-05-02T06:21:45.435Z,1016.21
2023-05-02T06:22:45.447Z,1016.18
2023-05-02T06:23:45.440Z,1016.25
2023-05-02T06:24:45.420Z,1016.25
2023-05-02T06:25:45.391Z,1016.27
2023-05-02T06:26:45.380Z,1016.32
2023-05-02T06:27:45.371Z,1016.32
2023-05-02T06:28:45.358Z,1016.37
2023-05-02T06:29:45.373Z,1016.39
2023-05-02T06:30:45.345Z,1016.39
2023-05-02T06:31:45.371Z,1016.43
2023-05-02T06:32:45.358Z,1016.44
2023-05-02T06:33:45.296Z,1016.40
2023-05-02T06:34:45.315Z,1016.47
2023-05-02T06:35:45.273Z,1016.43
2023-05-02T06:36:45.276Z,1016.50
2023-05-02T06:37:45.264Z,1016.46
2023-05-02T06:38:45.268Z,1016.54
2023-05-02T06:39:45.228Z,1016.57
2023-05-02T06:40:45.269Z,1016.60
2023-05-02T06:41:45.206Z,1016.64
2023-05-02T06:42:45.205Z,1016.62
2023-05-02T06:43:45.221Z,1016.67
2023-05-02T06:44:45.181Z,1016.70
2023-05-02T06:45:45.184Z,1016.76
2023-05-02T06:46:45.218Z,1016.79
2023-05-02T06:47:45.187Z,1016.88
2023-05-02T06:48:45.130Z,1016.75
2023-05-02T06:49:45.127Z,1016.89
2023-05-02T06:50:45.108Z,1016.91
2023-05-02T06:51:45.112Z,1016.93
2023-05-02T06:52:45.089Z,1017.01
2023-05-02T06:53:45.076Z,1017.01
2023-05-02T06:54:45.090Z,1017.11
2023-05-02T06:55:45.079Z,1017.02
2023-05-02T06:56:45.057Z,1017.10
2023-05-02T06:57:45.028Z,1017.05
2023-05-02T06:58:45.021Z,1017.12
2023-05-02T06:59:45.003Z,1017.13
2023-05-02T07:00:45.056Z,1017.11
2023-05-02T07:01:45.023Z,1017.14
2023-05-02T07:02:45.016Z,1017.12
2023-05-02T07:03:44.977Z,1017.19
2023-05-02T07:04:44.985Z,1017.20
2023-05-02T07:05:44.939Z,1017.19
2023-05-02T07:06:44.984Z,1017.20
2023-05-02T07:07:44.958Z,1017.18
2023-05-02T07:08:44.908Z,1017.22
2023-05-02T07:09:44.900Z,1017.29
2023-05-02T07:10:44.909Z,1017.20
2023-05-02T07:11:44.872Z,1017.26
2023-05-02T07:12:44.874Z,1017.29
2023-05-02T07:13:44.864Z,1017.25
2023-05-02T07:14:44.857Z,1017.27
2023-05-02T07:15:44.840Z,1017.34
2023-05-02T07:16:44.863Z,1017.35
2023-05-02T07:17:44.850Z,1017.43
2023-05-02T07:18:45.013Z,1017.38
2023-05-02T07:19:45.744Z,1017.34
2023-05-02T07:20:44.786Z,1017.45
2023-05-02T07:21:44.757Z,1017.43
2023-05-02T07:22:44.771Z,1017.39
2023-05-02T07:23:44.768Z,1017.44
2023-05-02T07:24:44.739Z,1017.43
2023-05-02T07:25:44.736Z,1017.45
2023-05-02T07:26:44.726Z,1017.51
2023-05-02T07:27:44.701Z,1017.52
2023-05-02T07:28:44.755Z,1017.49
2023-05-02T07:29:44.676Z,1017.54
2023-05-02T07:30:44.658Z,1017.50
2023-05-02T07:31:44.734Z,1017.51
2023-05-02T07:32:44.660Z,1017.52
2023-05-02T07:33:44.676Z,1017.50
2023-05-02T07:34:44.616Z,1017.53
2023-05-02T07:35:44.607Z,1017.48
2023-05-02T07:36:44.597Z,1017.50
2023-05-02T07:37:44.592Z,1017.48
2023-05-02T07:38:44.576Z,1017.52
2023-05-02T07:39:44.582Z,1017.55
2023-05-02T07:40:44.575Z,1017.52
2023-05-02T07:41:44.553Z,1017.56
2023-05-02T07:42:44.558Z,1017.59
2023-05-02T07:43:44.520Z,1017.63
2023-05-02T07:44:44.517Z,1017.61
2023-05-02T07:45:44.524Z,1017.62
2023-05-02T07:46:44.546Z,1017.66
2023-05-02T07:47:44.502Z,1017.61
2023-05-02T07:48:44.469Z,1017.65
2023-05-02T07:49:44.462Z,1017.67
2023-05-02T07:50:44.506Z,1017.72
2023-05-02T07:51:44.437Z,1017.71
2023-05-02T07:52:44.456Z,1017.70
2023-05-02T07:53:44.408Z,1017.77
2023-05-02T07:54:44.397Z,1017.80
2023-05-02T07:55:44.388Z,1017.76
2023-05-02T07:56:44.389Z,1017.78
2023-05-02T07:57:44.398Z,1017.79
2023-05-02T07:58:44.398Z,1017.82
2023-05-02T07:59:44.342Z,1017.80
2023-05-02T08:00:44.328Z,1017.79
2023-05-02T08:01:44.330Z,1017.85
2023-05-02T08:02:44.373Z,1017.81
2023-05-02T08:03:44.450Z,1017.88
2023-05-02T08:04:44.314Z,1017.87
2023-05-02T08:05:44.280Z,1017.83
2023-05-02T08:06:44.311Z,1017.84
2023-05-02T08:07:44.300Z,1017.91
2023-05-02T08:08:44.258Z,1017.92
2023-05-02T08:09:44.233Z,1017.95
2023-05-02T08:10:44.244Z,1017.91
2023-05-02T08:11:44.209Z,1017.91
2023-05-02T08:12:44.197Z,1017.94
2023-05-02T08:13:44.200Z,1017.86
2023-05-02T08:14:44.226Z,1017.89
2023-05-02T08:15:44.200Z,1017.88
2023-05-02T08:16:46.198Z,1017.86
2023-05-02T08:17:44.231Z,1017.88
2023-05-02T08:18:44.130Z,1017.96
2023-05-02T08:19:44.163Z,1017.90
2023-05-02T08:20:44.115Z,1017.96
2023-05-02T08:21:44.097Z,1017.93
2023-05-02T08:22:44.085Z,1017.94
2023-05-02T08:23:44.082Z,1017.96
2023-05-02T08:24:44.089Z,1018.04
2023-05-02T08:25:44.082Z,1017.98
2023-05-02T08:26:44.065Z,1018.00
2023-05-02T08:27:44.035Z,1018.03
2023-05-02T08:28:44.015Z,1018.04
2023-05-02T08:29:44.017Z,1018.02
2023-05-02T08:30:44.013Z,1018.01
2023-05-02T08:31:44.091Z,1018.04
2023-05-02T08:32:44.027Z,1018.08
2023-05-02T08:33:44.022Z,1018.04
2023-05-02T08:34:43.995Z,1018.12
2023-05-02T08:35:43.955Z,1018.07
2023-05-02T08:36:43.951Z,1018.12
2023-05-02T08:37:43.935Z,1018.07
2023-05-02T08:38:43.920Z,1018.06
2023-05-02T08:39:43.914Z,1018.10
2023-05-02T08:40:43.922Z,1018.13
2023-05-02T08:41:43.873Z,1018.11
2023-05-02T08:42:43.922Z,1018.08
2023-05-02T08:43:43.873Z,1018.22
2023-05-02T08:44:43.837Z,1018.19
2023-05-02T08:45:43.834Z,1018.20
2023-05-02T08:46:43.944Z,1018.21
2023-05-02T08:47:43.825Z,1018.25
2023-05-02T08:48:43.813Z,1018.21
2023-05-02T08:49:43.802Z,1018.27
2023-05-02T08:50:43.766Z,1018.29
2023-05-02T08:51:43.764Z,1018.27
2023-05-02T08:52:43.760Z,1018.33
2023-05-02T08:53:43.740Z,1018.32
2023-05-02T08:54:43.737Z,1018.30
2023-05-02T08:55:44.063Z,1018.31
2023-05-02T08:56:43.699Z,1018.36
2023-05-02T08:57:43.701Z,1018.34
2023-05-02T08:58:43.695Z,1018.34
2023-05-02T08:59:43.674Z,1018.40
2023-05-02T09:00:43.761Z,1018.40
2023-05-02T09:01:43.669Z,1018.45
2023-05-02T09:02:43.682Z,1018.43
2023-05-02T09:03:43.662Z,1018.43
2023-05-02T09:04:43.651Z,1018.43
2023-05-02T09:05:43.609Z,1018.44
2023-05-02T09:06:43.612Z,1018.51
2023-05-02T09:07:43.583Z,1018.54
2023-05-02T09:08:43.586Z,1018.52
2023-05-02T09:09:43.583Z,1018.49
2023-05-02T09:10:43.549Z,1018.53
2023-05-02T09:11:43.539Z,1018.53
2023-05-02T09:12:43.528Z,1018.59
2023-05-02T09:13:43.713Z,1018.61
2023-05-02T09:14:43.514Z,1018.66
2023-05-02T09:15:43.512Z,1018.68
2023-05-02T09:16:43.619Z,1018.65
2023-05-02T09:17:43.485Z,1018.64
2023-05-02T09:18:43.514Z,1018.65
2023-05-02T09:19:43.463Z,1018.65
2023-05-02T09:20:43.432Z,1018.73
2023-05-02T09:21:43.427Z,1018.71
2023-05-02T09:22:43.422Z,1018.75
2023-05-02T09:23:43.404Z,1018.71
2023-05-02T09:24:43.400Z,1018.69
2023-05-02T09:25:43.380Z,1018.76
2023-05-02T09:26:43.365Z,1018.59
2023-05-02T09:27:43.361Z,1018.77
2023-05-02T09:28:43.364Z,1018.71
2023-05-02T09:29:43.354Z,1018.76
2023-05-02T09:30:43.351Z,1018.81
2023-05-02T09:31:54.928Z,1018.76
2023-05-02T09:32:44.310Z,1018.77
2023-05-02T09:33:43.294Z,1018.81
2023-05-02T09:34:43.336Z,1018.79
2023-05-02T09:35:43.277Z,1018.81
2023-05-02T09:36:43.276Z,1018.78
2023-05-02T09:37:43.248Z,1018.83
2023-05-02T09:38:43.242Z,1018.83
2023-05-02T09:39:43.239Z,1018.81
2023-05-02T09:40:43.226Z,1018.78
2023-05-02T09:41:43.208Z,1018.86
2023-05-02T09:42:43.188Z,1018.82
2023-05-02T09:43:43.179Z,1018.87
2023-05-02T09:44:43.173Z,1018.91
2023-05-02T09:45:43.223Z,1018.92
2023-05-02T09:46:43.402Z,1018.94
2023-05-02T09:47:43.156Z,1018.93
2023-05-02T09:48:43.121Z,1018.95
2023-05-02T09:49:43.120Z,1019.02
2023-05-02T09:50:43.132Z,1019.06
2023-05-02T09:51:43.089Z,1019.07
2023-05-02T09:52:43.094Z,1019.13
2023-05-02T09:53:43.067Z,1019.05
2023-05-02T09:54:43.090Z,1019.07
2023-05-02T09:55:43.049Z,1019.02
2023-05-02T09:56:43.038Z,1019.04
2023-05-02T09:57:43.025Z,1019.09
2023-05-02T09:58:43.021Z,1019.11
2023-05-02T09:59:43.021Z,1019.13
2023-05-02T10:00:43.001Z,1019.12
2023-05-02T10:01:43.080Z,1019.19
2023-05-02T10:02:43.245Z,1019.25
2023-05-02T10:03:42.958Z,1019.17
2023-05-02T10:04:43.151Z,1019.19
2023-05-02T10:05:42.950Z,1019.28
2023-05-02T10:06:43.049Z,1019.22
2023-05-02T10:07:42.915Z,1019.22
2023-05-02T10:08:42.897Z,1019.32
2023-05-02T10:09:42.904Z,1019.27
2023-05-02T10:10:42.894Z,1019.32
2023-05-02T10:11:42.870Z,1019.28
2023-05-02T10:12:42.855Z,1019.24
2023-05-02T10:13:42.845Z,1019.27
2023-05-02T10:14:42.834Z,1019.31
2023-05-02T10:15:42.866Z,1019.30
2023-05-02T10:16:42.824Z,1019.28
2023-05-02T10:17:42.841Z,1019.27
2023-05-02T10:18:42.792Z,1019.32
2023-05-02T10:19:42.787Z,1019.29
2023-05-02T10:20:42.766Z,1019.27
2023-05-02T10:21:42.783Z,1019.27
2023-05-02T10:22:42.768Z,1019.34
2023-05-02T10:23:42.737Z,1019.35
2023-05-02T10:24:42.722Z,1019.40
2023-05-02T10:25:42.739Z,1019.49
2023-05-02T10:26:42.710Z,1019.43
2023-05-02T10:27:42.720Z,1019.47
2023-05-02T10:28:42.681Z,1019.41
2023-05-02T10:29:42.674Z,1019.46
2023-05-02T10:30:42.681Z,1019.44
2023-05-02T10:31:44.288Z,1019.46
2023-05-02T10:32:42.667Z,1019.44
2023-05-02T10:33:42.636Z,1019.41
2023-05-02T10:34:42.678Z,1019.44
2023-05-02T10:35:42.603Z,1019.44
2023-05-02T10:36:42.620Z,1019.51
2023-05-02T10:37:42.582Z,1019.47
2023-05-02T10:38:42.599Z,1019.56
2023-05-02T10:39:42.569Z,1019.48
2023-05-02T10:40:42.553Z,1019.54
2023-05-02T10:41:42.534Z,1019.55
2023-05-02T10:42:42.539Z,1019.58
2023-05-02T10:43:42.514Z,1019.56
2023-05-02T10:44:42.498Z,1019.54
2023-05-02T10:45:42.529Z,1019.59
2023-05-02T10:46:42.510Z,1019.57
2023-05-02T10:47:42.510Z,1019.58
2023-05-02T10:48:42.459Z,1019.55
2023-05-02T10:49:42.456Z,1019.57
2023-05-02T10:50:42.451Z,1019.64
2023-05-02T10:51:42.456Z,1019.61
2023-05-02T10:52:42.432Z,1019.62
2023-05-02T10:53:42.405Z,1019.63
2023-05-02T10:54:42.407Z,1019.62
2023-05-02T10:55:42.380Z,1019.58
2023-05-02T10:56:42.361Z,1019.60
2023-05-02T10:57:42.379Z,1019.64
2023-05-02T10:58:42.340Z,1019.62
2023-05-02T10:59:42.340Z,1019.66
2023-05-02T11:00:42.344Z,1019.64
2023-05-02T11:01:42.314Z,1019.67
2023-05-02T11:02:42.383Z,1019.65
2023-05-02T11:03:42.287Z,1019.60
2023-05-02T11:04:42.280Z,1019.62
2023-05-02T11:05:42.265Z,1019.58
2023-05-02T11:06:42.281Z,1019.62
2023-05-02T11:07:42.254Z,1019.61
2023-05-02T11:08:42.228Z,1019.57
2023-05-02T11:09:42.235Z,1019.57
2023-05-02T11:10:42.243Z,1019.59
2023-05-02T11:11:42.231Z,1019.66
2023-05-02T11:12:42.201Z,1019.60
2023-05-02T11:13:42.184Z,1019.56
2023-05-02T11:14:42.163Z,1019.60
2023-05-02T11:15:42.186Z,1019.63
2023-05-02T11:16:42.188Z,1019.63
2023-05-02T11:17:42.147Z,1019.62
2023-05-02T11:18:42.119Z,1019.62
2023-05-02T11:19:42.114Z,1019.64
2023-05-02T11:20:42.110Z,1019.62
2023-05-02T11:21:42.109Z,1019.55
2023-05-02T11:22:42.082Z,1019.59
2023-05-02T11:23:42.072Z,1019.52
2023-05-02T11:24:42.054Z,1019.55
2023-05-02T11:25:42.080Z,1019.62
2023-05-02T11:26:42.050Z,1019.65
2023-05-02T11:27:42.023Z,1019.69
2023-05-02T11:28:42.047Z,1019.71
2023-05-02T11:29:42.000Z,1019.73
2023-05-02T11:30:41.986Z,1019.71
2023-05-02T11:31:42.016Z,1019.74
2023-05-02T11:32:41.975Z,1019.66
2023-05-02T11:33:41.952Z,1019.66
2023-05-02T11:34:41.949Z,1019.74
2023-05-02T11:35:41.932Z,1019.67
2023-05-02T11:36:41.944Z,1019.74
2023-05-02T11:37:41.912Z,1019.77
2023-05-02T11:38:41.899Z,1019.77
2023-05-02T11:39:41.904Z,1019.73
2023-05-02T11:40:41.887Z,1019.79
2023-05-02T11:41:41.882Z,1019.87
2023-05-02T11:42:41.900Z,1019.90
2023-05-02T11:43:41.849Z,1019.80
2023-05-02T11:44:41.834Z,1019.88
2023-05-02T11:45:41.865Z,1019.85
2023-05-02T11:46:41.960Z,1019.85
2023-05-02T11:47:41.829Z,1019.86
2023-05-02T11:48:41.791Z,1019.82
2023-05-02T11:49:41.781Z,1019.88
2023-05-02T11:50:46.662Z,1019.85
2023-05-02T11:51:42.763Z,1019.86
2023-05-02T11:52:41.763Z,1019.88
2023-05-02T11:53:41.734Z,1019.83
2023-05-02T11:54:41.728Z,1019.85
2023-05-02T11:55:41.709Z,1019.80
2023-05-02T11:56:41.699Z,1019.91
2023-05-02T11:57:41.738Z,1019.91
2023-05-02T11:58:41.717Z,1019.89
2023-05-02T11:59:41.665Z,1019.88
2023-05-02T12:00:41.660Z,1019.96
2023-05-02T12:01:41.644Z,1019.90
2023-05-02T12:02:41.771Z,1019.88
2023-05-02T12:03:41.970Z,1019.94
2023-05-02T12:04:41.616Z,1019.85
2023-05-02T12:05:41.631Z,1019.93